Global Sentinel — KGSU — position and weather

sailwx.info

Track history (hours):
 
Tides and Currents Weather Stations Pressure Air Temp Water Temp Dewpoint Dewpoint Depression Visibility Wind Speed Wind Dir Waves Ship Positions

Global Sentinel

Owner: Transoceanic Cable Ship Company, LLC, Baltimore, MD. More information available from US FCC via Universal Licensing System and Coast Guard Vessel Documentation Center.

Last reported at 2017-Oct-20 07:00 UTC. Time now 2017-Oct-20 07:23 UTC.
Position N 46°11' W 123°52'.

Length 158 m; draft 8 m.

Type: Other ship. MMSI: 369134000.

Date/timePositionNaut miles runAvg speedWind from/ knotsBaromVisibWave heightAir tempDewpointWater temp
2017-Oct-20 07:00N 46°11' W 123°52'0 0.0
2017-Oct-20 06:27N 46°11' W 123°52'0 0.0
2017-Oct-20 06:01N 46°11' W 123°52'0 0.0
2017-Oct-20 05:30N 46°11' W 123°52'0 0.0
2017-Oct-20 05:00N 46°11' W 123°52'0 0.0
2017-Oct-20 04:24N 46°11' W 123°52'0 0.0
2017-Oct-20 04:00N 46°11' W 123°52'0 0.0
2017-Oct-20 03:30N 46°11' W 123°52'0 0.0
2017-Oct-20 03:00N 46°11' W 123°52'0 0.0
2017-Oct-20 02:30N 46°11' W 123°52'0 0.0
2017-Oct-20 02:00N 46°11' W 123°52'0 0.0
2017-Oct-20 01:30N 46°11' W 123°52'0 0.0
2017-Oct-20 01:00N 46°11' W 123°52'0 0.0
2017-Oct-20 00:30N 46°11' W 123°52'0 0.0
2017-Oct-20 00:00N 46°11' W 123°52'0 0.0
2017-Oct-19 23:30N 46°11' W 123°52'0 0.0
2017-Oct-19 23:00N 46°11' W 123°52'0 0.0
2017-Oct-19 22:30N 46°11' W 123°52'0 0.0
2017-Oct-19 21:57N 46°11' W 123°52'0 0.0
2017-Oct-19 21:30N 46°11' W 123°52'0 0.0
2017-Oct-19 21:00N 46°11' W 123°52'0 0.0
2017-Oct-19 20:30N 46°11' W 123°52'0 0.0
2017-Oct-19 20:00N 46°11' W 123°52'0 0.0
2017-Oct-19 19:30N 46°11' W 123°52'0 0.0
2017-Oct-19 19:00N 46°11' W 123°52'0 0.0
2017-Oct-19 18:30N 46°11' W 123°52'0 0.0
2017-Oct-19 18:00N 46°11' W 123°52'0 0.0
2017-Oct-19 17:30N 46°11' W 123°52'0 0.0
2017-Oct-19 17:00N 46°11' W 123°52'0 0.0
2017-Oct-19 16:30N 46°11' W 123°52'0 0.6
2017-Oct-19 16:00N 46°11' W 123°52'3 6.9
2017-Oct-19 15:30N 46°12' W 123°57'510.7
2017-Oct-19 15:00N 46°15' W 124°03'4 8.7
2017-Oct-19 14:30N 46°13' W 124°08'4 6.3
2017-Oct-19 13:51N 46°10' W 124°12'2 5.7
2017-Oct-19 13:30N 46°08' W 124°11'4 8.4
2017-Oct-19 13:00N 46°04' W 124°11'4 9.0
2017-Oct-19 12:30N 45°59' W 124°11'5 9.4
2017-Oct-19 12:00N 45°55' W 124°11'5 9.4
2017-Oct-19 11:30N 45°50' W 124°11'5 9.7
2017-Oct-19 11:00N 45°45' W 124°10'5 9.8
2017-Oct-19 10:30N 45°40' W 124°10'5 9.4
2017-Oct-19 09:57N 45°35' W 124°09'4 9.5
2017-Oct-19 09:30N 45°31' W 124°09'5 9.7
2017-Oct-19 09:00N 45°26' W 124°09'510.3
2017-Oct-19 08:30N 45°21' W 124°08'510.4
2017-Oct-19 08:00N 45°15' W 124°08'6 9.8
2017-Oct-19 07:25N 45°10' W 124°08'0 0.2
2017-Oct-19 06:47N 45°10' W 124°07'0 0.2
2017-Oct-19 06:28N 45°10' W 124°07'0 0.0
2017-Oct-18 22:06N 45°10' W 124°07'0 0.0
2017-Oct-18 21:57N 45°10' W 124°07'0 0.0
2017-Oct-18 21:26N 45°10' W 124°07'0 0.0
2017-Oct-18 20:59N 45°10' W 124°07'0 0.0
2017-Oct-18 20:18N 45°10' W 124°07'0 0.0
2017-Oct-18 19:57N 45°10' W 124°07'0 0.0
2017-Oct-18 18:35N 45°10' W 124°07'0 0.0
2017-Oct-18 16:14N 45°10' W 124°07'0 0.0
2017-Oct-18 15:52N 45°10' W 124°07'0 0.0
2017-Oct-18 15:12N 45°10' W 124°07'0 0.0
2017-Oct-18 14:44N 45°10' W 124°07'0 0.0
2017-Oct-18 13:55N 45°10' W 124°07'0 0.0
2017-Oct-18 12:44N 45°10' W 124°07'0 0.0
2017-Oct-18 12:30N 45°10' W 124°07'0 0.0
2017-Oct-18 11:58N 45°10' W 124°07'0 0.0
2017-Oct-18 11:30N 45°10' W 124°07'0 0.0
2017-Oct-18 11:00N 45°10' W 124°07'0 0.0
2017-Oct-18 10:30N 45°10' W 124°07'0 0.0
2017-Oct-18 08:12N 45°10' W 124°07'0 0.1
2017-Oct-18 07:45N 45°10' W 124°07'0 0.0
2017-Oct-18 07:30N 45°10' W 124°07'0 0.0
2017-Oct-18 06:59N 45°10' W 124°07'0 0.0
2017-Oct-18 06:29N 45°10' W 124°07'0 0.0
2017-Oct-18 05:50N 45°10' W 124°07'0 0.0
2017-Oct-18 05:20N 45°10' W 124°07'0 0.0
2017-Oct-18 05:00N 45°10' W 124°07'0 0.0
2017-Oct-18 04:30N 45°10' W 124°07'0 0.0
2017-Oct-18 04:00N 45°10' W 124°07'0 0.0
2017-Oct-18 03:28N 45°10' W 124°07'0 0.0
2017-Oct-18 02:58N 45°10' W 124°07'0 0.0
2017-Oct-18 02:30N 45°10' W 124°07'0 0.0
2017-Oct-18 02:00N 45°10' W 124°07'0 0.0
2017-Oct-18 01:28N 45°10' W 124°07'0 0.0
2017-Oct-18 00:03N 45°10' W 124°07'0 0.0
2017-Oct-17 23:51N 45°10' W 124°07'0 0.0
2017-Oct-17 23:11N 45°10' W 124°07'0 0.0
2017-Oct-17 23:00N 45°10' W 124°07'0 0.0
2017-Oct-17 22:30N 45°10' W 124°07'0 0.0
2017-Oct-17 21:49N 45°10' W 124°07'0 0.0
2017-Oct-17 21:12N 45°10' W 124°07'0 0.0
2017-Oct-17 20:45N 45°10' W 124°07'0 0.0
2017-Oct-17 20:30N 45°10' W 124°07'0 0.0
2017-Oct-17 19:41N 45°10' W 124°07'0 0.0
2017-Oct-17 19:30N 45°10' W 124°07'0 0.0
2017-Oct-17 17:51N 45°10' W 124°07'0 0.0
2017-Oct-17 13:30N 45°10' W 124°07'0 0.0
2017-Oct-17 13:00N 45°10' W 124°07'0 0.0
2017-Oct-17 12:30N 45°10' W 124°07'0 0.0
2017-Oct-17 11:56N 45°10' W 124°07'0 0.0
2017-Oct-17 11:30N 45°10' W 124°07'0 0.0
2017-Oct-17 11:00N 45°10' W 124°07'0 0.0
2017-Oct-17 10:29N 45°10' W 124°07'0 0.0
2017-Oct-17 10:00N 45°10' W 124°07'0 0.0
2017-Oct-17 09:30N 45°10' W 124°07'0 0.0
2017-Oct-17 09:00N 45°10' W 124°07'0 0.0
2017-Oct-17 08:30N 45°10' W 124°07'0 0.0
2017-Oct-17 08:00N 45°10' W 124°07'0 0.0
2017-Oct-17 07:30N 45°10' W 124°07'0 0.0
2017-Oct-17 07:00N 45°10' W 124°07'0 0.0
2017-Oct-17 06:30N 45°10' W 124°07'0 0.0
2017-Oct-17 06:00N 45°10' W 124°07'0 0.0
2017-Oct-17 05:30N 45°10' W 124°07'0 0.0
2017-Oct-17 05:00N 45°10' W 124°07'0 0.0
2017-Oct-17 04:30N 45°10' W 124°07'0 0.1
2017-Oct-17 04:00N 45°10' W 124°07'0 0.0
2017-Oct-17 03:30N 45°10' W 124°07'0 0.0
2017-Oct-17 03:00N 45°10' W 124°07'0 0.0
2017-Oct-17 02:30N 45°10' W 124°07'0 0.0
2017-Oct-17 02:00N 45°10' W 124°07'0 0.1
2017-Oct-17 01:30N 45°10' W 124°07'0 0.1
2017-Oct-17 01:00N 45°10' W 124°07'0 0.1
2017-Oct-17 00:29N 45°10' W 124°07'0 0.0
2017-Oct-17 00:00N 45°10' W 124°07'0 0.0
2017-Oct-16 23:30N 45°10' W 124°07'0 0.1
2017-Oct-16 23:00N 45°10' W 124°07'0 0.1
2017-Oct-16 22:30N 45°10' W 124°07'0 0.0
2017-Oct-16 22:00N 45°10' W 124°07'0 0.1
2017-Oct-16 21:30N 45°10' W 124°07'0 0.1
2017-Oct-16 20:58N 45°10' W 124°07'0 0.0
2017-Oct-16 20:30N 45°10' W 124°07'0 0.0
2017-Oct-16 20:00N 45°10' W 124°07'0 0.0
2017-Oct-16 19:30N 45°10' W 124°07'0 0.0
2017-Oct-16 19:00N 45°10' W 124°07'0 0.0
2017-Oct-16 18:30N 45°10' W 124°07'0 0.0
2017-Oct-16 18:00N 45°10' W 124°07'0 0.0
2017-Oct-16 17:30N 45°10' W 124°07'0 0.0
2017-Oct-16 16:59N 45°10' W 124°07'0 0.1
2017-Oct-16 16:30N 45°10' W 124°07'0 0.0
2017-Oct-16 16:00N 45°10' W 124°07'0 0.1
2017-Oct-16 15:30N 45°10' W 124°07'0 0.0
2017-Oct-16 15:00N 45°10' W 124°07'0 0.3
2017-Oct-16 14:30N 45°10' W 124°07'0 0.0
2017-Oct-16 13:30N 45°10' W 124°08'0 0.3
2017-Oct-16 13:00N 45°10' W 124°07'0 0.4
2017-Oct-16 12:30N 45°10' W 124°07'0 0.3
2017-Oct-16 12:00N 45°10' W 124°07'0 0.3
2017-Oct-16 11:30N 45°10' W 124°07'0 0.3
2017-Oct-16 11:00N 45°10' W 124°06'0 0.3
2017-Oct-16 10:30N 45°10' W 124°06'0 0.4
2017-Oct-16 10:00N 45°10' W 124°06'0 0.3
2017-Oct-16 09:30N 45°10' W 124°06'0 0.3
2017-Oct-16 09:00N 45°10' W 124°06'0 0.3
2017-Oct-16 08:30N 45°10' W 124°05'0 0.3
2017-Oct-16 08:00N 45°10' W 124°05'0 0.3
2017-Oct-16 07:22N 45°10' W 124°05'0 0.2
2017-Oct-16 07:00N 45°10' W 124°05'0 0.3
2017-Oct-16 06:30N 45°10' W 124°05'0 0.3
2017-Oct-16 05:59N 45°10' W 124°04'0 0.3
2017-Oct-16 05:30N 45°10' W 124°04'0 0.4
2017-Oct-16 05:00N 45°10' W 124°04'0 0.3
2017-Oct-16 04:30N 45°11' W 124°04'0 0.3
2017-Oct-16 04:00N 45°11' W 124°04'0 0.3
2017-Oct-16 03:30N 45°11' W 124°03'0 0.3
2017-Oct-16 03:00N 45°11' W 124°03'0 0.4
2017-Oct-16 02:30N 45°11' W 124°03'0 0.3
2017-Oct-16 02:00N 45°11' W 124°03'0 0.3
2017-Oct-16 01:30N 45°11' W 124°03'0 0.3
2017-Oct-16 01:00N 45°11' W 124°02'0 0.3
2017-Oct-16 00:30N 45°11' W 124°02'0 0.3
2017-Oct-16 00:00N 45°11' W 124°02'0 0.3
2017-Oct-15 23:30N 45°11' W 124°02'0 0.3
2017-Oct-15 23:00N 45°11' W 124°02'0 0.3
2017-Oct-15 22:30N 45°11' W 124°01'0 0.3
2017-Oct-15 22:00N 45°11' W 124°01'0 0.3
2017-Oct-15 21:27N 45°11' W 124°01'0 0.3
2017-Oct-15 21:00N 45°11' W 124°01'0 0.3
2017-Oct-15 20:29N 45°11' W 124°01'0 0.3
2017-Oct-15 19:59N 45°11' W 124°00'0 0.3
2017-Oct-15 19:24N 45°11' W 124°00'0 0.3
2017-Oct-15 18:54N 45°11' W 124°00'0 0.3
2017-Oct-15 18:28N 45°12' W 123°60'0 0.3
2017-Oct-15 17:58N 45°12' W 123°60'0 0.3
2017-Oct-15 17:29N 45°12' W 123°59'0 0.2
2017-Oct-15 16:47N 45°12' W 123°59'0 0.0
2017-Oct-14 21:28N 45°12' W 123°59'0 0.0
2017-Oct-14 19:24N 45°12' W 123°59'0 0.0
2017-Oct-14 18:09N 45°12' W 123°59'0 0.3
2017-Oct-14 18:00N 45°12' W 123°59'0 0.1
2017-Oct-14 17:30N 45°12' W 123°59'0 0.0
2017-Oct-14 17:00N 45°12' W 123°59'0 0.0
2017-Oct-14 16:31N 45°12' W 123°59'0 0.0
2017-Oct-14 16:00N 45°12' W 123°59'0 0.0
2017-Oct-14 15:30N 45°12' W 123°59'0 0.0
2017-Oct-14 15:00N 45°12' W 123°59'0 0.0
2017-Oct-14 14:30N 45°12' W 123°59'0 0.0
2017-Oct-14 14:00N 45°12' W 123°59'0 0.0
2017-Oct-14 13:30N 45°12' W 123°59'0 0.0
2017-Oct-14 13:00N 45°12' W 123°59'0 0.0
2017-Oct-14 12:30N 45°12' W 123°59'0 0.0
2017-Oct-14 12:00N 45°12' W 123°59'0 0.0
2017-Oct-14 11:30N 45°12' W 123°59'0 0.0
2017-Oct-14 11:00N 45°12' W 123°59'0 0.0
2017-Oct-14 10:31N 45°12' W 123°59'0 0.0
2017-Oct-14 10:00N 45°12' W 123°59'0 0.0
2017-Oct-14 09:30N 45°12' W 123°59'0 0.0
2017-Oct-14 09:00N 45°12' W 123°59'0 0.0
2017-Oct-14 08:30N 45°12' W 123°59'0 0.0
2017-Oct-14 08:00N 45°12' W 123°59'0 0.0
2017-Oct-14 07:29N 45°12' W 123°59'0 0.0
2017-Oct-14 06:59N 45°12' W 123°59'0 0.0
2017-Oct-14 06:30N 45°12' W 123°59'0 0.0
2017-Oct-14 05:49N 45°12' W 123°59'0 0.0
2017-Oct-14 05:29N 45°12' W 123°59'0 0.0
2017-Oct-14 05:00N 45°12' W 123°59'0 0.0
2017-Oct-14 04:25N 45°12' W 123°59'0 0.0
2017-Oct-14 04:00N 45°12' W 123°59'0 0.0
2017-Oct-14 03:19N 45°12' W 123°59'0 0.0
2017-Oct-14 02:57N 45°12' W 123°59'0 0.0
2017-Oct-14 02:30N 45°12' W 123°59'0 0.0
2017-Oct-14 02:00N 45°12' W 123°59'0 0.0
2017-Oct-14 01:28N 45°12' W 123°59'0 0.0
2017-Oct-14 00:58N 45°12' W 123°59'0 0.0
2017-Oct-14 00:30N 45°12' W 123°59'0 0.0
2017-Oct-13 23:57N 45°12' W 123°59'0 0.0
2017-Oct-13 23:30N 45°12' W 123°59'0 0.0
2017-Oct-13 23:00N 45°12' W 123°59'0 0.0
2017-Oct-13 22:30N 45°12' W 123°59'0 0.0
2017-Oct-13 22:00N 45°12' W 123°59'0 0.0
2017-Oct-13 21:15N 45°12' W 123°59'0 0.0
2017-Oct-13 21:00N 45°12' W 123°59'0 0.0
2017-Oct-13 20:30N 45°12' W 123°59'0 0.0
2017-Oct-13 20:00N 45°12' W 123°59'0 0.0
2017-Oct-13 19:30N 45°12' W 123°59'0 0.0
2017-Oct-13 19:00N 45°12' W 123°59'0 0.0
2017-Oct-13 18:20N 45°12' W 123°59'0 0.1
2017-Oct-13 18:00N 45°12' W 123°59'0 0.0
2017-Oct-13 17:14N 45°12' W 123°59'0 0.0
2017-Oct-13 17:00N 45°12' W 123°59'0 0.0
2017-Oct-13 16:31N 45°12' W 123°59'0 0.0
2017-Oct-13 16:00N 45°12' W 123°59'0 0.0
2017-Oct-13 15:30N 45°12' W 123°59'0 0.0
2017-Oct-13 15:00N 45°12' W 123°59'0 0.0
2017-Oct-13 14:30N 45°12' W 123°59'0 0.0
2017-Oct-13 13:51N 45°12' W 123°59'0 0.0
2017-Oct-13 13:31N 45°12' W 123°59'0 0.0
2017-Oct-13 12:49N 45°12' W 123°59'0 0.0
2017-Oct-13 12:30N 45°12' W 123°59'0 0.0
2017-Oct-13 11:55N 45°12' W 123°59'0 0.0
2017-Oct-13 11:30N 45°12' W 123°59'0 0.0
2017-Oct-13 11:00N 45°12' W 123°59'0 0.0
2017-Oct-13 10:30N 45°12' W 123°59'0 0.0
2017-Oct-13 10:00N 45°12' W 123°59'0 0.0
2017-Oct-13 09:15N 45°12' W 123°59'0 0.0
2017-Oct-13 09:00N 45°12' W 123°59'0 0.0
2017-Oct-13 08:30N 45°12' W 123°59'0 0.0
2017-Oct-13 07:51N 45°12' W 123°59'0 0.0
2017-Oct-13 07:30N 45°12' W 123°59'0 0.0
2017-Oct-13 06:59N 45°12' W 123°59'0 0.0
2017-Oct-13 06:30N 45°12' W 123°59'0 0.0
2017-Oct-13 05:55N 45°12' W 123°59'0 0.0
2017-Oct-13 05:30N 45°12' W 123°59'0 0.0
2017-Oct-13 05:00N 45°12' W 123°59'0 0.0
2017-Oct-13 04:30N 45°12' W 123°59'0 0.0
2017-Oct-13 04:00N 45°12' W 123°59'0 0.0
2017-Oct-13 03:30N 45°12' W 123°59'0 0.0
2017-Oct-13 03:00N 45°12' W 123°59'0 0.0
2017-Oct-13 02:21N 45°12' W 123°59'0 0.0
2017-Oct-13 02:00N 45°12' W 123°59'0 0.0
2017-Oct-13 01:31N 45°12' W 123°59'0 0.0
2017-Oct-13 01:00N 45°12' W 123°59'0 0.0
2017-Oct-13 00:30N 45°12' W 123°59'0 0.0
2017-Oct-13 00:00N 45°12' W 123°59'0 0.0
2017-Oct-12 23:30N 45°12' W 123°59'0 0.0
2017-Oct-12 23:00N 45°12' W 123°59'0 0.0
2017-Oct-12 22:30N 45°12' W 123°59'0 0.0
2017-Oct-12 21:59N 45°12' W 123°59'0 0.0
2017-Oct-12 21:15N 45°12' W 123°59'0 0.0
2017-Oct-12 20:59N 45°12' W 123°59'0 0.0
2017-Oct-12 20:30N 45°12' W 123°59'0 0.0
2017-Oct-12 20:00N 45°12' W 123°59'0 0.0
2017-Oct-12 19:29N 45°12' W 123°59'0 0.0
2017-Oct-12 19:00N 45°12' W 123°59'0 0.0
2017-Oct-12 18:28N 45°12' W 123°59'0 0.0
2017-Oct-12 18:00N 45°12' W 123°59'0 0.0
2017-Oct-12 17:23N 45°12' W 123°59'0 0.0
2017-Oct-12 16:41N 45°12' W 123°59'0 0.0
2017-Oct-12 15:57N 45°12' W 123°59'0 0.0
2017-Oct-12 14:28N 45°12' W 123°59'0 0.0
2017-Oct-12 13:51N 45°12' W 123°59'0 0.0
2017-Oct-12 13:29N 45°12' W 123°59'0 0.0
2017-Oct-12 12:55N 45°12' W 123°59'0 0.0
2017-Oct-12 12:29N 45°12' W 123°59'0 0.0
2017-Oct-12 11:52N 45°12' W 123°59'0 0.1
2017-Oct-12 11:30N 45°12' W 123°59'0 0.1
2017-Oct-12 10:57N 45°12' W 123°59'0 0.1
2017-Oct-12 10:30N 45°12' W 123°59'0 0.0
2017-Oct-12 09:51N 45°12' W 123°59'0 0.0
2017-Oct-12 09:30N 45°12' W 123°59'0 0.0
2017-Oct-12 08:56N 45°12' W 123°59'0 0.0
2017-Oct-12 08:30N 45°12' W 123°59'0 0.1
2017-Oct-12 07:44N 45°12' W 123°59'0 0.0
2017-Oct-12 07:30N 45°12' W 123°59'0 0.0
2017-Oct-12 07:00N 45°12' W 123°59'0 0.0
2017-Oct-12 06:30N 45°12' W 123°59'0 0.0
2017-Oct-12 06:00N 45°12' W 123°59'0 0.0
2017-Oct-12 05:26N 45°12' W 123°59'0 0.0
2017-Oct-12 05:00N 45°12' W 123°59'0 0.0
2017-Oct-12 04:30N 45°12' W 123°59'0 0.0
2017-Oct-12 04:00N 45°12' W 123°59'0 0.0
2017-Oct-12 03:30N 45°12' W 123°59'0 0.0
2017-Oct-12 03:00N 45°12' W 123°59'0 0.0
2017-Oct-12 02:30N 45°12' W 123°59'0 0.0
2017-Oct-12 02:00N 45°12' W 123°59'0 0.0
2017-Oct-12 01:30N 45°12' W 123°59'0 0.0
2017-Oct-12 01:00N 45°12' W 123°59'0 0.0
2017-Oct-12 00:31N 45°12' W 123°59'0 0.0
2017-Oct-11 23:50N 45°12' W 123°59'0 0.0
2017-Oct-11 23:30N 45°12' W 123°59'0 0.0
2017-Oct-11 23:00N 45°12' W 123°59'0 0.0
2017-Oct-11 22:19N 45°12' W 123°59'0 0.0
2017-Oct-11 21:57N 45°12' W 123°59'0 0.0
2017-Oct-11 21:30N 45°12' W 123°59'0 0.0
2017-Oct-11 21:00N 45°12' W 123°59'0 0.0
2017-Oct-11 20:30N 45°12' W 123°59'0 0.0
2017-Oct-11 19:59N 45°12' W 123°59'0 0.0
2017-Oct-11 19:30N 45°12' W 123°59'0 0.1
2017-Oct-11 19:00N 45°12' W 123°59'0 0.0
2017-Oct-11 18:30N 45°12' W 123°59'0 0.0
2017-Oct-11 18:00N 45°12' W 123°59'0 0.0
2017-Oct-11 17:30N 45°12' W 123°59'0 0.0
2017-Oct-11 17:00N 45°12' W 123°59'0 0.0
2017-Oct-10 13:25N 45°12' W 123°59'0 0.1
2017-Oct-10 13:00N 45°12' W 123°59'0 0.4
2017-Oct-10 12:15N 45°12' W 123°60'0 0.0
2017-Oct-10 12:00N 45°12' W 123°60'0 0.0
2017-Oct-10 11:30N 45°12' W 123°60'0 0.0
2017-Oct-10 11:00N 45°12' W 123°60'0 0.0
2017-Oct-10 10:30N 45°12' W 123°60'0 0.0
2017-Oct-10 10:00N 45°12' W 123°60'0 0.0
2017-Oct-10 09:17N 45°12' W 123°60'0 0.0
2017-Oct-10 08:50N 45°12' W 123°60'0 0.0
2017-Oct-10 08:30N 45°12' W 123°60'0 0.0
2017-Oct-10 08:00N 45°12' W 123°60'0 0.0
2017-Oct-10 07:31N 45°12' W 123°60'  
Track history (hours):
 
Tides and Currents Weather Stations Pressure Air Temp Water Temp Dewpoint Dewpoint Depression Visibility Wind Speed Wind Dir Waves Ship Positions

Global Sentinel

Owner: Transoceanic Cable Ship Company, LLC, Baltimore, MD. More information available from US FCC via Universal Licensing System and Coast Guard Vessel Documentation Center.

Last reported at 2017-Oct-20 07:00 UTC. Time now 2017-Oct-20 07:23 UTC.
Position N 46°11' W 123°52'.

Length 158 m; draft 8 m.

Type: Other ship. MMSI: 369134000.

Date/timePositionNaut miles runAvg speedWind from/ knotsBaromVisibWave heightAir tempDewpointWater temp
2017-Oct-20 07:00N 46°11' W 123°52'0 0.0
2017-Oct-20 06:27N 46°11' W 123°52'0 0.0
2017-Oct-20 06:01N 46°11' W 123°52'0 0.0
2017-Oct-20 05:30N 46°11' W 123°52'0 0.0
2017-Oct-20 05:00N 46°11' W 123°52'0 0.0
2017-Oct-20 04:24N 46°11' W 123°52'0 0.0
2017-Oct-20 04:00N 46°11' W 123°52'0 0.0
2017-Oct-20 03:30N 46°11' W 123°52'0 0.0
2017-Oct-20 03:00N 46°11' W 123°52'0 0.0
2017-Oct-20 02:30N 46°11' W 123°52'0 0.0
2017-Oct-20 02:00N 46°11' W 123°52'0 0.0
2017-Oct-20 01:30N 46°11' W 123°52'0 0.0
2017-Oct-20 01:00N 46°11' W 123°52'0 0.0
2017-Oct-20 00:30N 46°11' W 123°52'0 0.0
2017-Oct-20 00:00N 46°11' W 123°52'0 0.0
2017-Oct-19 23:30N 46°11' W 123°52'0 0.0
2017-Oct-19 23:00N 46°11' W 123°52'0 0.0
2017-Oct-19 22:30N 46°11' W 123°52'0 0.0
2017-Oct-19 21:57N 46°11' W 123°52'0 0.0
2017-Oct-19 21:30N 46°11' W 123°52'0 0.0
2017-Oct-19 21:00N 46°11' W 123°52'0 0.0
2017-Oct-19 20:30N 46°11' W 123°52'0 0.0
2017-Oct-19 20:00N 46°11' W 123°52'0 0.0
2017-Oct-19 19:30N 46°11' W 123°52'0 0.0
2017-Oct-19 19:00N 46°11' W 123°52'0 0.0
2017-Oct-19 18:30N 46°11' W 123°52'0 0.0
2017-Oct-19 18:00N 46°11' W 123°52'0 0.0
2017-Oct-19 17:30N 46°11' W 123°52'0 0.0
2017-Oct-19 17:00N 46°11' W 123°52'0 0.0
2017-Oct-19 16:30N 46°11' W 123°52'0 0.6
2017-Oct-19 16:00N 46°11' W 123°52'3 6.9
2017-Oct-19 15:30N 46°12' W 123°57'510.7
2017-Oct-19 15:00N 46°15' W 124°03'4 8.7
2017-Oct-19 14:30N 46°13' W 124°08'4 6.3
2017-Oct-19 13:51N 46°10' W 124°12'2 5.7
2017-Oct-19 13:30N 46°08' W 124°11'4 8.4
2017-Oct-19 13:00N 46°04' W 124°11'4 9.0
2017-Oct-19 12:30N 45°59' W 124°11'5 9.4
2017-Oct-19 12:00N 45°55' W 124°11'5 9.4
2017-Oct-19 11:30N 45°50' W 124°11'5 9.7
2017-Oct-19 11:00N 45°45' W 124°10'5 9.8
2017-Oct-19 10:30N 45°40' W 124°10'5 9.4
2017-Oct-19 09:57N 45°35' W 124°09'4 9.5
2017-Oct-19 09:30N 45°31' W 124°09'5 9.7
2017-Oct-19 09:00N 45°26' W 124°09'510.3
2017-Oct-19 08:30N 45°21' W 124°08'510.4
2017-Oct-19 08:00N 45°15' W 124°08'6 9.8
2017-Oct-19 07:25N 45°10' W 124°08'0 0.2
2017-Oct-19 06:47N 45°10' W 124°07'0 0.2
2017-Oct-19 06:28N 45°10' W 124°07'0 0.0
2017-Oct-18 22:06N 45°10' W 124°07'0 0.0
2017-Oct-18 21:57N 45°10' W 124°07'0 0.0
2017-Oct-18 21:26N 45°10' W 124°07'0 0.0
2017-Oct-18 20:59N 45°10' W 124°07'0 0.0
2017-Oct-18 20:18N 45°10' W 124°07'0 0.0
2017-Oct-18 19:57N 45°10' W 124°07'0 0.0
2017-Oct-18 18:35N 45°10' W 124°07'0 0.0
2017-Oct-18 16:14N 45°10' W 124°07'0 0.0
2017-Oct-18 15:52N 45°10' W 124°07'0 0.0
2017-Oct-18 15:12N 45°10' W 124°07'0 0.0
2017-Oct-18 14:44N 45°10' W 124°07'0 0.0
2017-Oct-18 13:55N 45°10' W 124°07'0 0.0
2017-Oct-18 12:44N 45°10' W 124°07'0 0.0
2017-Oct-18 12:30N 45°10' W 124°07'0 0.0
2017-Oct-18 11:58N 45°10' W 124°07'0 0.0
2017-Oct-18 11:30N 45°10' W 124°07'0 0.0
2017-Oct-18 11:00N 45°10' W 124°07'0 0.0
2017-Oct-18 10:30N 45°10' W 124°07'0 0.0
2017-Oct-18 08:12N 45°10' W 124°07'0 0.1
2017-Oct-18 07:45N 45°10' W 124°07'0 0.0
2017-Oct-18 07:30N 45°10' W 124°07'0 0.0
2017-Oct-18 06:59N 45°10' W 124°07'0 0.0
2017-Oct-18 06:29N 45°10' W 124°07'0 0.0
2017-Oct-18 05:50N 45°10' W 124°07'0 0.0
2017-Oct-18 05:20N 45°10' W 124°07'0 0.0
2017-Oct-18 05:00N 45°10' W 124°07'0 0.0
2017-Oct-18 04:30N 45°10' W 124°07'0 0.0
2017-Oct-18 04:00N 45°10' W 124°07'0 0.0
2017-Oct-18 03:28N 45°10' W 124°07'0 0.0
2017-Oct-18 02:58N 45°10' W 124°07'0 0.0
2017-Oct-18 02:30N 45°10' W 124°07'0 0.0
2017-Oct-18 02:00N 45°10' W 124°07'0 0.0
2017-Oct-18 01:28N 45°10' W 124°07'0 0.0
2017-Oct-18 00:03N 45°10' W 124°07'0 0.0
2017-Oct-17 23:51N 45°10' W 124°07'0 0.0
2017-Oct-17 23:11N 45°10' W 124°07'0 0.0
2017-Oct-17 23:00N 45°10' W 124°07'0 0.0
2017-Oct-17 22:30N 45°10' W 124°07'0 0.0
2017-Oct-17 21:49N 45°10' W 124°07'0 0.0
2017-Oct-17 21:12N 45°10' W 124°07'0 0.0
2017-Oct-17 20:45N 45°10' W 124°07'0 0.0
2017-Oct-17 20:30N 45°10' W 124°07'0 0.0
2017-Oct-17 19:41N 45°10' W 124°07'0 0.0
2017-Oct-17 19:30N 45°10' W 124°07'0 0.0
2017-Oct-17 17:51N 45°10' W 124°07'0 0.0
2017-Oct-17 13:30N 45°10' W 124°07'0 0.0
2017-Oct-17 13:00N 45°10' W 124°07'0 0.0
2017-Oct-17 12:30N 45°10' W 124°07'0 0.0
2017-Oct-17 11:56N 45°10' W 124°07'0 0.0
2017-Oct-17 11:30N 45°10' W 124°07'0 0.0
2017-Oct-17 11:00N 45°10' W 124°07'0 0.0
2017-Oct-17 10:29N 45°10' W 124°07'0 0.0
2017-Oct-17 10:00N 45°10' W 124°07'0 0.0
2017-Oct-17 09:30N 45°10' W 124°07'0 0.0
2017-Oct-17 09:00N 45°10' W 124°07'0 0.0
2017-Oct-17 08:30N 45°10' W 124°07'0 0.0
2017-Oct-17 08:00N 45°10' W 124°07'0 0.0
2017-Oct-17 07:30N 45°10' W 124°07'0 0.0
2017-Oct-17 07:00N 45°10' W 124°07'0 0.0
2017-Oct-17 06:30N 45°10' W 124°07'0 0.0
2017-Oct-17 06:00N 45°10' W 124°07'0 0.0
2017-Oct-17 05:30N 45°10' W 124°07'0 0.0
2017-Oct-17 05:00N 45°10' W 124°07'0 0.0
2017-Oct-17 04:30N 45°10' W 124°07'0 0.1
2017-Oct-17 04:00N 45°10' W 124°07'0 0.0
2017-Oct-17 03:30N 45°10' W 124°07'0 0.0
2017-Oct-17 03:00N 45°10' W 124°07'0 0.0
2017-Oct-17 02:30N 45°10' W 124°07'0 0.0
2017-Oct-17 02:00N 45°10' W 124°07'0 0.1
2017-Oct-17 01:30N 45°10' W 124°07'0 0.1
2017-Oct-17 01:00N 45°10' W 124°07'0 0.1
2017-Oct-17 00:29N 45°10' W 124°07'0 0.0
2017-Oct-17 00:00N 45°10' W 124°07'0 0.0
2017-Oct-16 23:30N 45°10' W 124°07'0 0.1
2017-Oct-16 23:00N 45°10' W 124°07'0 0.1
2017-Oct-16 22:30N 45°10' W 124°07'0 0.0
2017-Oct-16 22:00N 45°10' W 124°07'0 0.1
2017-Oct-16 21:30N 45°10' W 124°07'0 0.1
2017-Oct-16 20:58N 45°10' W 124°07'0 0.0
2017-Oct-16 20:30N 45°10' W 124°07'0 0.0
2017-Oct-16 20:00N 45°10' W 124°07'0 0.0
2017-Oct-16 19:30N 45°10' W 124°07'0 0.0
2017-Oct-16 19:00N 45°10' W 124°07'0 0.0
2017-Oct-16 18:30N 45°10' W 124°07'0 0.0
2017-Oct-16 18:00N 45°10' W 124°07'0 0.0
2017-Oct-16 17:30N 45°10' W 124°07'0 0.0
2017-Oct-16 16:59N 45°10' W 124°07'0 0.1
2017-Oct-16 16:30N 45°10' W 124°07'0 0.0
2017-Oct-16 16:00N 45°10' W 124°07'0 0.1
2017-Oct-16 15:30N 45°10' W 124°07'0 0.0
2017-Oct-16 15:00N 45°10' W 124°07'0 0.3
2017-Oct-16 14:30N 45°10' W 124°07'0 0.0
2017-Oct-16 13:30N 45°10' W 124°08'0 0.3
2017-Oct-16 13:00N 45°10' W 124°07'0 0.4
2017-Oct-16 12:30N 45°10' W 124°07'0 0.3
2017-Oct-16 12:00N 45°10' W 124°07'0 0.3
2017-Oct-16 11:30N 45°10' W 124°07'0 0.3
2017-Oct-16 11:00N 45°10' W 124°06'0 0.3
2017-Oct-16 10:30N 45°10' W 124°06'0 0.4
2017-Oct-16 10:00N 45°10' W 124°06'0 0.3
2017-Oct-16 09:30N 45°10' W 124°06'0 0.3
2017-Oct-16 09:00N 45°10' W 124°06'0 0.3
2017-Oct-16 08:30N 45°10' W 124°05'0 0.3
2017-Oct-16 08:00N 45°10' W 124°05'0 0.3
2017-Oct-16 07:22N 45°10' W 124°05'0 0.2
2017-Oct-16 07:00N 45°10' W 124°05'0 0.3
2017-Oct-16 06:30N 45°10' W 124°05'0 0.3
2017-Oct-16 05:59N 45°10' W 124°04'0 0.3
2017-Oct-16 05:30N 45°10' W 124°04'0 0.4
2017-Oct-16 05:00N 45°10' W 124°04'0 0.3
2017-Oct-16 04:30N 45°11' W 124°04'0 0.3
2017-Oct-16 04:00N 45°11' W 124°04'0 0.3
2017-Oct-16 03:30N 45°11' W 124°03'0 0.3
2017-Oct-16 03:00N 45°11' W 124°03'0 0.4
2017-Oct-16 02:30N 45°11' W 124°03'0 0.3
2017-Oct-16 02:00N 45°11' W 124°03'0 0.3
2017-Oct-16 01:30N 45°11' W 124°03'0 0.3
2017-Oct-16 01:00N 45°11' W 124°02'0 0.3
2017-Oct-16 00:30N 45°11' W 124°02'0 0.3
2017-Oct-16 00:00N 45°11' W 124°02'0 0.3
2017-Oct-15 23:30N 45°11' W 124°02'0 0.3
2017-Oct-15 23:00N 45°11' W 124°02'0 0.3
2017-Oct-15 22:30N 45°11' W 124°01'0 0.3
2017-Oct-15 22:00N 45°11' W 124°01'0 0.3
2017-Oct-15 21:27N 45°11' W 124°01'0 0.3
2017-Oct-15 21:00N 45°11' W 124°01'0 0.3
2017-Oct-15 20:29N 45°11' W 124°01'0 0.3
2017-Oct-15 19:59N 45°11' W 124°00'0 0.3
2017-Oct-15 19:24N 45°11' W 124°00'0 0.3
2017-Oct-15 18:54N 45°11' W 124°00'0 0.3
2017-Oct-15 18:28N 45°12' W 123°60'0 0.3
2017-Oct-15 17:58N 45°12' W 123°60'0 0.3
2017-Oct-15 17:29N 45°12' W 123°59'0 0.2
2017-Oct-15 16:47N 45°12' W 123°59'0 0.0
2017-Oct-14 21:28N 45°12' W 123°59'0 0.0
2017-Oct-14 19:24N 45°12' W 123°59'0 0.0
2017-Oct-14 18:09N 45°12' W 123°59'0 0.3
2017-Oct-14 18:00N 45°12' W 123°59'0 0.1
2017-Oct-14 17:30N 45°12' W 123°59'0 0.0
2017-Oct-14 17:00N 45°12' W 123°59'0 0.0
2017-Oct-14 16:31N 45°12' W 123°59'0 0.0
2017-Oct-14 16:00N 45°12' W 123°59'0 0.0
2017-Oct-14 15:30N 45°12' W 123°59'0 0.0
2017-Oct-14 15:00N 45°12' W 123°59'0 0.0
2017-Oct-14 14:30N 45°12' W 123°59'0 0.0
2017-Oct-14 14:00N 45°12' W 123°59'0 0.0
2017-Oct-14 13:30N 45°12' W 123°59'0 0.0
2017-Oct-14 13:00N 45°12' W 123°59'0 0.0
2017-Oct-14 12:30N 45°12' W 123°59'0 0.0
2017-Oct-14 12:00N 45°12' W 123°59'0 0.0
2017-Oct-14 11:30N 45°12' W 123°59'0 0.0
2017-Oct-14 11:00N 45°12' W 123°59'0 0.0
2017-Oct-14 10:31N 45°12' W 123°59'0 0.0
2017-Oct-14 10:00N 45°12' W 123°59'0 0.0
2017-Oct-14 09:30N 45°12' W 123°59'0 0.0
2017-Oct-14 09:00N 45°12' W 123°59'0 0.0
2017-Oct-14 08:30N 45°12' W 123°59'0 0.0
2017-Oct-14 08:00N 45°12' W 123°59'0 0.0
2017-Oct-14 07:29N 45°12' W 123°59'0 0.0
2017-Oct-14 06:59N 45°12' W 123°59'0 0.0
2017-Oct-14 06:30N 45°12' W 123°59'0 0.0
2017-Oct-14 05:49N 45°12' W 123°59'0 0.0
2017-Oct-14 05:29N 45°12' W 123°59'0 0.0
2017-Oct-14 05:00N 45°12' W 123°59'0 0.0
2017-Oct-14 04:25N 45°12' W 123°59'0 0.0
2017-Oct-14 04:00N 45°12' W 123°59'0 0.0
2017-Oct-14 03:19N 45°12' W 123°59'0 0.0
2017-Oct-14 02:57N 45°12' W 123°59'0 0.0
2017-Oct-14 02:30N 45°12' W 123°59'0 0.0
2017-Oct-14 02:00N 45°12' W 123°59'0 0.0
2017-Oct-14 01:28N 45°12' W 123°59'0 0.0
2017-Oct-14 00:58N 45°12' W 123°59'0 0.0
2017-Oct-14 00:30N 45°12' W 123°59'0 0.0
2017-Oct-13 23:57N 45°12' W 123°59'0 0.0
2017-Oct-13 23:30N 45°12' W 123°59'0 0.0
2017-Oct-13 23:00N 45°12' W 123°59'0 0.0
2017-Oct-13 22:30N 45°12' W 123°59'0 0.0
2017-Oct-13 22:00N 45°12' W 123°59'0 0.0
2017-Oct-13 21:15N 45°12' W 123°59'0 0.0
2017-Oct-13 21:00N 45°12' W 123°59'0 0.0
2017-Oct-13 20:30N 45°12' W 123°59'0 0.0
2017-Oct-13 20:00N 45°12' W 123°59'0 0.0
2017-Oct-13 19:30N 45°12' W 123°59'0 0.0
2017-Oct-13 19:00N 45°12' W 123°59'0 0.0
2017-Oct-13 18:20N 45°12' W 123°59'0 0.1
2017-Oct-13 18:00N 45°12' W 123°59'0 0.0
2017-Oct-13 17:14N 45°12' W 123°59'0 0.0
2017-Oct-13 17:00N 45°12' W 123°59'0 0.0
2017-Oct-13 16:31N 45°12' W 123°59'0 0.0
2017-Oct-13 16:00N 45°12' W 123°59'0 0.0
2017-Oct-13 15:30N 45°12' W 123°59'0 0.0
2017-Oct-13 15:00N 45°12' W 123°59'0 0.0
2017-Oct-13 14:30N 45°12' W 123°59'0 0.0
2017-Oct-13 13:51N 45°12' W 123°59'0 0.0
2017-Oct-13 13:31N 45°12' W 123°59'0 0.0
2017-Oct-13 12:49N 45°12' W 123°59'0 0.0
2017-Oct-13 12:30N 45°12' W 123°59'0 0.0
2017-Oct-13 11:55N 45°12' W 123°59'0 0.0
2017-Oct-13 11:30N 45°12' W 123°59'0 0.0
2017-Oct-13 11:00N 45°12' W 123°59'0 0.0
2017-Oct-13 10:30N 45°12' W 123°59'0 0.0
2017-Oct-13 10:00N 45°12' W 123°59'0 0.0
2017-Oct-13 09:15N 45°12' W 123°59'0 0.0
2017-Oct-13 09:00N 45°12' W 123°59'0 0.0
2017-Oct-13 08:30N 45°12' W 123°59'0 0.0
2017-Oct-13 07:51N 45°12' W 123°59'0 0.0
2017-Oct-13 07:30N 45°12' W 123°59'0 0.0
2017-Oct-13 06:59N 45°12' W 123°59'0 0.0
2017-Oct-13 06:30N 45°12' W 123°59'0 0.0
2017-Oct-13 05:55N 45°12' W 123°59'0 0.0
2017-Oct-13 05:30N 45°12' W 123°59'0 0.0
2017-Oct-13 05:00N 45°12' W 123°59'0 0.0
2017-Oct-13 04:30N 45°12' W 123°59'0 0.0
2017-Oct-13 04:00N 45°12' W 123°59'0 0.0
2017-Oct-13 03:30N 45°12' W 123°59'0 0.0
2017-Oct-13 03:00N 45°12' W 123°59'0 0.0
2017-Oct-13 02:21N 45°12' W 123°59'0 0.0
2017-Oct-13 02:00N 45°12' W 123°59'0 0.0
2017-Oct-13 01:31N 45°12' W 123°59'0 0.0
2017-Oct-13 01:00N 45°12' W 123°59'0 0.0
2017-Oct-13 00:30N 45°12' W 123°59'0 0.0
2017-Oct-13 00:00N 45°12' W 123°59'0 0.0
2017-Oct-12 23:30N 45°12' W 123°59'0 0.0
2017-Oct-12 23:00N 45°12' W 123°59'0 0.0
2017-Oct-12 22:30N 45°12' W 123°59'0 0.0
2017-Oct-12 21:59N 45°12' W 123°59'0 0.0
2017-Oct-12 21:15N 45°12' W 123°59'0 0.0
2017-Oct-12 20:59N 45°12' W 123°59'0 0.0
2017-Oct-12 20:30N 45°12' W 123°59'0 0.0
2017-Oct-12 20:00N 45°12' W 123°59'0 0.0
2017-Oct-12 19:29N 45°12' W 123°59'0 0.0
2017-Oct-12 19:00N 45°12' W 123°59'0 0.0
2017-Oct-12 18:28N 45°12' W 123°59'0 0.0
2017-Oct-12 18:00N 45°12' W 123°59'0 0.0
2017-Oct-12 17:23N 45°12' W 123°59'0 0.0
2017-Oct-12 16:41N 45°12' W 123°59'0 0.0
2017-Oct-12 15:57N 45°12' W 123°59'0 0.0
2017-Oct-12 14:28N 45°12' W 123°59'0 0.0
2017-Oct-12 13:51N 45°12' W 123°59'0 0.0
2017-Oct-12 13:29N 45°12' W 123°59'0 0.0
2017-Oct-12 12:55N 45°12' W 123°59'0 0.0
2017-Oct-12 12:29N 45°12' W 123°59'0 0.0
2017-Oct-12 11:52N 45°12' W 123°59'0 0.1
2017-Oct-12 11:30N 45°12' W 123°59'0 0.1
2017-Oct-12 10:57N 45°12' W 123°59'0 0.1
2017-Oct-12 10:30N 45°12' W 123°59'0 0.0
2017-Oct-12 09:51N 45°12' W 123°59'0 0.0
2017-Oct-12 09:30N 45°12' W 123°59'0 0.0
2017-Oct-12 08:56N 45°12' W 123°59'0 0.0
2017-Oct-12 08:30N 45°12' W 123°59'0 0.1
2017-Oct-12 07:44N 45°12' W 123°59'0 0.0
2017-Oct-12 07:30N 45°12' W 123°59'0 0.0
2017-Oct-12 07:00N 45°12' W 123°59'0 0.0
2017-Oct-12 06:30N 45°12' W 123°59'0 0.0
2017-Oct-12 06:00N 45°12' W 123°59'0 0.0
2017-Oct-12 05:26N 45°12' W 123°59'0 0.0
2017-Oct-12 05:00N 45°12' W 123°59'0 0.0
2017-Oct-12 04:30N 45°12' W 123°59'0 0.0
2017-Oct-12 04:00N 45°12' W 123°59'0 0.0
2017-Oct-12 03:30N 45°12' W 123°59'0 0.0
2017-Oct-12 03:00N 45°12' W 123°59'0 0.0
2017-Oct-12 02:30N 45°12' W 123°59'0 0.0
2017-Oct-12 02:00N 45°12' W 123°59'0 0.0
2017-Oct-12 01:30N 45°12' W 123°59'0 0.0
2017-Oct-12 01:00N 45°12' W 123°59'0 0.0
2017-Oct-12 00:31N 45°12' W 123°59'0 0.0
2017-Oct-11 23:50N 45°12' W 123°59'0 0.0
2017-Oct-11 23:30N 45°12' W 123°59'0 0.0
2017-Oct-11 23:00N 45°12' W 123°59'0 0.0
2017-Oct-11 22:19N 45°12' W 123°59'0 0.0
2017-Oct-11 21:57N 45°12' W 123°59'0 0.0
2017-Oct-11 21:30N 45°12' W 123°59'0 0.0
2017-Oct-11 21:00N 45°12' W 123°59'0 0.0
2017-Oct-11 20:30N 45°12' W 123°59'0 0.0
2017-Oct-11 19:59N 45°12' W 123°59'0 0.0
2017-Oct-11 19:30N 45°12' W 123°59'0 0.1
2017-Oct-11 19:00N 45°12' W 123°59'0 0.0
2017-Oct-11 18:30N 45°12' W 123°59'0 0.0
2017-Oct-11 18:00N 45°12' W 123°59'0 0.0
2017-Oct-11 17:30N 45°12' W 123°59'0 0.0
2017-Oct-11 17:00N 45°12' W 123°59'0 0.0
2017-Oct-10 13:25N 45°12' W 123°59'0 0.1
2017-Oct-10 13:00N 45°12' W 123°59'0 0.4
2017-Oct-10 12:15N 45°12' W 123°60'0 0.0
2017-Oct-10 12:00N 45°12' W 123°60'0 0.0
2017-Oct-10 11:30N 45°12' W 123°60'0 0.0
2017-Oct-10 11:00N 45°12' W 123°60'0 0.0
2017-Oct-10 10:30N 45°12' W 123°60'0 0.0
2017-Oct-10 10:00N 45°12' W 123°60'0 0.0
2017-Oct-10 09:17N 45°12' W 123°60'0 0.0
2017-Oct-10 08:50N 45°12' W 123°60'0 0.0
2017-Oct-10 08:30N 45°12' W 123°60'0 0.0
2017-Oct-10 08:00N 45°12' W 123°60'0 0.0
2017-Oct-10 07:31N 45°12' W 123°60'  

Dump ship's entire track history